createdAt,value
2018-04-07T00:01:58.138Z,2.20
2018-04-07T00:04:25.579Z,1.67
2018-04-07T00:06:52.944Z,1.80
2018-04-07T00:09:20.342Z,1.90
2018-04-07T00:11:47.834Z,1.73
2018-04-07T00:14:15.227Z,2.27
2018-04-07T00:16:42.639Z,2.10
2018-04-07T00:19:10.046Z,2.70
2018-04-07T00:21:37.450Z,2.10
2018-04-07T00:24:04.913Z,1.97
2018-04-07T00:26:32.296Z,2.47
2018-04-07T00:28:59.711Z,2.13
2018-04-07T00:31:27.177Z,2.40
2018-04-07T00:33:54.567Z,2.17
2018-04-07T00:36:21.956Z,2.23
2018-04-07T00:38:49.445Z,2.37
2018-04-07T00:41:16.827Z,2.53
2018-04-07T00:43:44.232Z,2.10
2018-04-07T00:46:11.615Z,2.20
2018-04-07T00:48:39.014Z,2.30
2018-04-07T00:51:06.406Z,3.00
2018-04-07T00:53:33.806Z,2.07
2018-04-07T00:56:01.187Z,2.53
2018-04-07T00:58:28.566Z,2.50
2018-04-07T01:00:55.962Z,2.15
2018-04-07T01:03:23.339Z,2.80
2018-04-07T01:05:50.730Z,3.37
2018-04-07T01:08:18.115Z,2.80
2018-04-07T01:10:45.494Z,2.57
2018-04-07T01:13:12.912Z,2.57
2018-04-07T01:15:40.303Z,2.57
2018-04-07T01:18:07.689Z,2.40
2018-04-07T01:20:35.079Z,2.87
2018-04-07T01:23:02.461Z,2.60
2018-04-07T01:25:29.897Z,2.43
2018-04-07T01:27:57.330Z,2.37
2018-04-07T01:30:24.723Z,2.63
2018-04-07T01:32:52.098Z,2.90
2018-04-07T01:35:19.502Z,2.57
2018-04-07T01:37:46.886Z,2.57
2018-04-07T01:40:14.281Z,2.20
2018-04-07T01:42:41.658Z,2.60
2018-04-07T01:45:09.122Z,2.80
2018-04-07T01:47:36.506Z,2.30
2018-04-07T01:50:03.890Z,2.87
2018-04-07T01:52:31.290Z,2.10
2018-04-07T01:54:58.747Z,1.80
2018-04-07T01:57:26.126Z,2.60
2018-04-07T01:59:54.334Z,2.40
2018-04-07T02:02:21.730Z,2.43
2018-04-07T02:04:49.123Z,2.53
2018-04-07T02:07:16.514Z,3.33
2018-04-07T02:09:43.914Z,2.57
2018-04-07T02:12:11.294Z,3.13
2018-04-07T02:14:38.686Z,2.37
2018-04-07T02:17:06.074Z,3.00
2018-04-07T02:19:33.475Z,2.70
2018-04-07T02:22:00.862Z,2.70
2018-04-07T02:24:28.330Z,2.23
2018-04-07T02:26:55.716Z,2.53
2018-04-07T02:29:23.118Z,2.60
2018-04-07T02:31:50.503Z,2.77
2018-04-07T02:34:17.887Z,1.97
2018-04-07T02:36:45.301Z,2.97
2018-04-07T02:39:12.681Z,2.67
2018-04-07T02:41:40.075Z,2.30
2018-04-07T02:44:07.460Z,2.83
2018-04-07T02:46:34.854Z,3.00
2018-04-07T02:49:02.292Z,2.20
2018-04-07T02:51:29.680Z,2.50
2018-04-07T02:53:57.062Z,2.90
2018-04-07T02:56:24.452Z,2.73
2018-04-07T02:58:51.841Z,2.47
2018-04-07T03:01:19.237Z,2.33
2018-04-07T03:03:46.644Z,2.83
2018-04-07T03:06:14.021Z,3.03
2018-04-07T03:08:41.397Z,3.40
2018-04-07T03:11:08.797Z,2.50
2018-04-07T03:13:36.182Z,3.20
2018-04-07T03:16:03.599Z,3.00
2018-04-07T03:18:30.978Z,2.60
2018-04-07T03:20:58.366Z,2.70
2018-04-07T03:23:26.391Z,3.00
2018-04-07T03:25:53.774Z,2.77
2018-04-07T03:28:21.154Z,2.17
2018-04-07T03:30:48.551Z,3.00
2018-04-07T03:33:15.934Z,3.00
2018-04-07T03:35:43.385Z,2.97
2018-04-07T03:38:10.766Z,2.60
2018-04-07T03:40:38.171Z,3.00
2018-04-07T03:43:05.574Z,2.20
2018-04-07T03:45:33.034Z,2.83
2018-04-07T03:48:00.434Z,3.03
2018-04-07T03:50:27.886Z,2.57
2018-04-07T03:52:55.213Z,2.43
2018-04-07T03:55:22.615Z,2.70
2018-04-07T03:57:49.986Z,2.73
2018-04-07T04:00:17.460Z,2.87
2018-04-07T04:02:44.846Z,3.10
2018-04-07T04:05:12.239Z,2.93
2018-04-07T04:07:40.548Z,2.93
2018-04-07T04:10:08.010Z,3.17
2018-04-07T04:12:35.394Z,2.80
2018-04-07T04:15:02.779Z,2.30
2018-04-07T04:17:30.176Z,2.90
2018-04-07T04:19:57.559Z,2.87
2018-04-07T04:22:24.953Z,2.87
2018-04-07T04:24:52.347Z,2.70
2018-04-07T04:27:19.759Z,3.03
2018-04-07T04:29:47.142Z,4.87
2018-04-07T04:32:14.543Z,2.50
2018-04-07T04:34:41.962Z,2.67
2018-04-07T04:37:09.350Z,2.37
2018-04-07T04:39:36.770Z,3.17
2018-04-07T04:42:04.159Z,2.73
2018-04-07T04:44:31.546Z,3.23
2018-04-07T04:46:59.056Z,2.50
2018-04-07T04:49:26.513Z,3.40
2018-04-07T04:51:53.899Z,3.20
2018-04-07T04:54:21.279Z,2.70
2018-04-07T04:56:48.669Z,2.90
2018-04-07T04:59:16.047Z,2.90
2018-04-07T05:01:43.435Z,2.67
2018-04-07T05:04:10.822Z,3.50
2018-04-07T05:06:38.224Z,3.30
2018-04-07T05:09:06.406Z,3.47
2018-04-07T05:11:33.799Z,2.80
2018-04-07T05:14:01.629Z,2.80
2018-04-07T05:16:29.022Z,2.67
2018-04-07T05:18:56.410Z,2.73
2018-04-07T05:21:23.807Z,2.50
2018-04-07T05:23:51.201Z,2.70
2018-04-07T05:26:18.619Z,3.70
2018-04-07T05:28:46.002Z,3.40
2018-04-07T05:31:13.399Z,2.53
2018-04-07T05:33:40.888Z,3.70
2018-04-07T05:36:08.281Z,2.70
2018-04-07T05:38:35.666Z,2.50
2018-04-07T05:41:03.147Z,3.20
2018-04-07T05:43:30.602Z,3.00
2018-04-07T05:45:58.010Z,3.83
2018-04-07T05:48:25.403Z,3.00
2018-04-07T05:50:52.875Z,3.73
2018-04-07T05:53:20.276Z,3.83
2018-04-07T05:55:47.687Z,2.80
2018-04-07T05:58:15.082Z,3.43
2018-04-07T06:00:42.494Z,4.23
2018-04-07T06:03:09.903Z,3.80
2018-04-07T06:05:37.306Z,3.53
2018-04-07T06:08:04.766Z,3.47
2018-04-07T06:10:32.222Z,3.27
2018-04-07T06:12:59.622Z,3.40
2018-04-07T06:15:27.031Z,3.97
2018-04-07T06:17:54.492Z,2.90
2018-04-07T06:20:21.871Z,3.97
2018-04-07T06:22:49.274Z,3.63
2018-04-07T06:25:16.766Z,3.60
2018-04-07T06:27:44.150Z,4.00
2018-04-07T06:30:17.278Z,3.80
2018-04-07T06:32:44.750Z,3.80
2018-04-07T06:35:12.210Z,3.87
2018-04-07T06:37:39.620Z,3.73
2018-04-07T06:40:07.002Z,3.20
2018-04-07T06:42:34.497Z,3.60
2018-04-07T06:45:01.945Z,3.60
2018-04-07T06:47:29.332Z,3.70
2018-04-07T06:49:56.719Z,3.30
2018-04-07T06:52:24.118Z,4.50
2018-04-07T06:54:51.562Z,3.53
2018-04-07T06:57:18.954Z,3.77
2018-04-07T06:59:46.339Z,3.87
2018-04-07T07:02:13.741Z,3.73
2018-04-07T07:04:41.130Z,3.60
2018-04-07T07:07:08.536Z,3.80
2018-04-07T07:09:35.958Z,4.27
2018-04-07T07:12:03.362Z,4.07
2018-04-07T07:14:30.750Z,3.53
2018-04-07T07:16:58.148Z,4.33
2018-04-07T07:19:25.547Z,4.10
2018-04-07T07:21:53.083Z,4.47
2018-04-07T07:24:20.501Z,3.97
2018-04-07T07:26:47.878Z,4.53
2018-04-07T07:29:15.266Z,3.87
2018-04-07T07:31:42.654Z,4.63
2018-04-07T07:34:10.056Z,4.20
2018-04-07T07:36:37.450Z,4.00
2018-04-07T07:39:05.390Z,3.57
2018-04-07T07:41:32.792Z,3.90
2018-04-07T07:44:00.172Z,4.17
2018-04-07T07:46:27.559Z,4.70
2018-04-07T07:48:54.947Z,4.13
2018-04-07T07:51:22.334Z,4.10
2018-04-07T07:53:49.734Z,4.00
2018-04-07T07:56:17.167Z,3.33
2018-04-07T07:58:44.685Z,4.60
2018-04-07T08:01:12.178Z,4.07
2018-04-07T08:03:39.554Z,4.07
2018-04-07T08:06:06.991Z,4.13
2018-04-07T08:08:34.430Z,4.80
2018-04-07T08:11:01.823Z,4.30
2018-04-07T08:13:29.214Z,4.20
2018-04-07T08:15:56.694Z,4.27
2018-04-07T08:18:24.168Z,3.27
2018-04-07T08:20:51.565Z,4.03
2018-04-07T08:23:18.943Z,5.07
2018-04-07T08:25:46.339Z,5.27
2018-04-07T08:28:13.735Z,4.23
2018-04-07T08:30:41.211Z,4.50
2018-04-07T08:33:08.676Z,4.40
2018-04-07T08:35:36.054Z,4.30
2018-04-07T08:38:03.455Z,4.97
2018-04-07T08:40:30.844Z,5.03
2018-04-07T08:42:59.150Z,4.00
2018-04-07T08:45:26.588Z,4.93
2018-04-07T08:47:53.955Z,4.33
2018-04-07T08:50:21.342Z,4.60
2018-04-07T08:52:48.818Z,4.30
2018-04-07T08:55:16.282Z,4.83
2018-04-07T08:57:43.743Z,5.80
2018-04-07T09:00:11.143Z,4.37
2018-04-07T09:02:38.550Z,4.10
2018-04-07T09:05:06.084Z,4.33
2018-04-07T09:07:33.458Z,4.50
2018-04-07T09:10:00.863Z,4.10
2018-04-07T09:12:28.266Z,5.43
2018-04-07T09:14:55.662Z,4.87
2018-04-07T09:17:23.127Z,4.77
2018-04-07T09:19:50.537Z,5.93
2018-04-07T09:22:17.929Z,4.40
2018-04-07T09:24:45.336Z,4.50
2018-04-07T09:27:12.862Z,4.60
2018-04-07T09:29:40.287Z,5.33
2018-04-07T09:32:07.670Z,4.87
2018-04-07T09:34:35.085Z,5.67
2018-04-07T09:37:02.503Z,5.70
2018-04-07T09:39:29.919Z,5.50
2018-04-07T09:41:57.355Z,4.93
2018-04-07T09:44:24.754Z,5.30
2018-04-07T09:46:52.139Z,4.80
2018-04-07T09:49:19.542Z,5.03
2018-04-07T09:51:46.950Z,5.20
2018-04-07T09:54:14.451Z,5.60
2018-04-07T09:56:41.846Z,5.03
2018-04-07T09:59:09.244Z,4.77
2018-04-07T10:01:36.626Z,5.73
2018-04-07T10:04:04.023Z,4.50
2018-04-07T10:06:31.470Z,4.90
2018-04-07T10:08:58.874Z,5.50
2018-04-07T10:11:26.410Z,5.10
2018-04-07T10:13:53.869Z,5.30
2018-04-07T10:16:21.254Z,5.00
2018-04-07T10:18:48.645Z,4.70
2018-04-07T10:21:16.030Z,5.03
2018-04-07T10:23:43.444Z,4.83
2018-04-07T10:26:10.892Z,6.20
2018-04-07T10:28:38.270Z,4.30
2018-04-07T10:31:05.682Z,6.30
2018-04-07T10:33:33.079Z,5.10
2018-04-07T10:36:00.462Z,5.30
2018-04-07T10:38:27.963Z,6.03
2018-04-07T10:40:55.382Z,5.60
2018-04-07T10:43:22.772Z,4.93
2018-04-07T10:45:50.159Z,5.30
2018-04-07T10:48:17.545Z,5.50
2018-04-07T10:50:45.194Z,5.37
2018-04-07T10:53:12.582Z,5.33
2018-04-07T10:55:39.982Z,4.60
2018-04-07T10:58:07.379Z,5.20
2018-04-07T11:00:34.788Z,6.07
2018-04-07T11:03:02.175Z,5.93
2018-04-07T11:05:29.570Z,5.47
2018-04-07T11:07:56.954Z,5.33
2018-04-07T11:10:24.453Z,5.43
2018-04-07T11:12:51.830Z,6.27
2018-04-07T11:15:19.264Z,5.40
2018-04-07T11:17:46.644Z,4.77
2018-04-07T11:20:14.067Z,5.93
2018-04-07T11:22:41.467Z,6.17
2018-04-07T11:25:08.847Z,5.40
2018-04-07T11:27:36.239Z,5.50
2018-04-07T11:30:03.899Z,6.20
2018-04-07T11:32:31.285Z,5.80
2018-04-07T11:34:58.693Z,6.60
2018-04-07T11:37:26.078Z,5.90
2018-04-07T11:39:53.475Z,6.20
2018-04-07T11:42:20.881Z,6.10
2018-04-07T11:44:48.334Z,6.13
2018-04-07T11:47:15.726Z,6.13
2018-04-07T11:49:43.138Z,6.97
2018-04-07T11:52:10.524Z,6.30
2018-04-07T11:54:37.941Z,6.13
2018-04-07T11:57:05.323Z,6.20
2018-04-07T11:59:32.774Z,5.50
2018-04-07T12:02:00.169Z,6.23
2018-04-07T12:04:27.563Z,5.93
2018-04-07T12:06:54.946Z,5.60
2018-04-07T12:09:22.407Z,5.57
2018-04-07T12:11:49.879Z,5.27
2018-04-07T12:14:17.347Z,4.87
2018-04-07T12:16:44.723Z,7.17
2018-04-07T12:19:12.130Z,6.37
2018-04-07T12:21:39.535Z,6.53
2018-04-07T12:24:06.943Z,5.80
2018-04-07T12:26:34.399Z,6.73
2018-04-07T12:29:02.727Z,6.40
2018-04-07T12:31:30.126Z,6.90
2018-04-07T12:33:57.592Z,6.47
2018-04-07T12:36:24.927Z,6.50
2018-04-07T12:38:52.395Z,6.23
2018-04-07T12:41:19.794Z,6.40
2018-04-07T12:43:47.218Z,6.30
2018-04-07T12:46:14.674Z,6.83
2018-04-07T12:48:42.054Z,7.23
2018-04-07T12:51:09.517Z,7.40
2018-04-07T12:53:36.882Z,6.50
2018-04-07T12:56:04.274Z,6.93
2018-04-07T12:58:31.667Z,6.70
2018-04-07T13:00:59.080Z,6.43
2018-04-07T13:03:26.478Z,7.57
2018-04-07T13:05:53.871Z,7.03
2018-04-07T13:08:21.337Z,6.60
2018-04-07T13:10:48.813Z,6.00
2018-04-07T13:13:17.195Z,6.50
2018-04-07T13:15:44.592Z,6.70
2018-04-07T13:18:11.975Z,6.83
2018-04-07T13:20:39.376Z,6.67
2018-04-07T13:23:06.755Z,6.63
2018-04-07T13:25:35.072Z,6.73
2018-04-07T13:28:02.578Z,7.40
2018-04-07T13:30:29.982Z,7.80
2018-04-07T13:32:57.390Z,6.53
2018-04-07T13:35:24.791Z,7.50
2018-04-07T13:37:52.202Z,7.53
2018-04-07T13:40:19.598Z,7.47
2018-04-07T13:45:27.932Z,7.70
2018-04-07T13:47:55.325Z,8.00
2018-04-07T13:50:22.722Z,8.73
2018-04-07T13:52:50.127Z,7.20
2018-04-07T13:55:17.511Z,8.20
2018-04-07T13:57:44.906Z,7.30
2018-04-07T14:00:12.294Z,7.40
2018-04-07T14:02:39.732Z,8.20
2018-04-07T14:05:07.151Z,8.10
2018-04-07T14:07:34.551Z,8.03
2018-04-07T14:10:01.950Z,9.00
2018-04-07T14:12:29.351Z,8.23
2018-04-07T14:14:56.748Z,8.40
2018-04-07T14:17:24.139Z,8.00
2018-04-07T14:19:51.537Z,9.20
2018-04-07T14:22:18.980Z,8.27
2018-04-07T14:24:46.395Z,7.60
2018-04-07T14:27:13.846Z,7.27
2018-04-07T14:29:41.234Z,7.43
2018-04-07T14:32:08.691Z,8.93
2018-04-07T14:34:36.077Z,8.77
2018-04-07T14:37:03.470Z,7.97
2018-04-07T14:39:30.947Z,8.97
2018-04-07T14:41:58.343Z,8.57
2018-04-07T14:44:25.779Z,9.67
2018-04-07T14:46:53.202Z,8.30
2018-04-07T14:49:20.626Z,8.37
2018-04-07T14:51:48.086Z,8.80
2018-04-07T14:54:15.478Z,9.20
2018-04-07T14:56:42.933Z,8.30
2018-04-07T14:59:10.289Z,8.10
2018-04-07T15:01:37.775Z,8.87
2018-04-07T15:04:05.239Z,9.70
2018-04-07T15:06:32.690Z,10.03
2018-04-07T15:09:00.149Z,10.23
2018-04-07T15:11:27.602Z,9.07
2018-04-07T15:13:55.128Z,10.13
2018-04-07T15:16:22.532Z,9.63
2018-04-07T15:18:49.927Z,10.40
2018-04-07T15:21:17.339Z,10.03
2018-04-07T15:23:44.731Z,9.70
2018-04-07T15:26:12.143Z,9.27
2018-04-07T15:28:39.549Z,10.67
2018-04-07T15:31:07.111Z,10.87
2018-04-07T15:33:34.528Z,9.80
2018-04-07T15:36:01.926Z,9.97
2018-04-07T15:38:29.330Z,11.10
2018-04-07T15:40:56.735Z,10.30
2018-04-07T15:43:24.161Z,10.83
2018-04-07T15:45:51.554Z,11.47
2018-04-07T15:48:19.077Z,10.97
2018-04-07T15:50:46.514Z,10.60
2018-04-07T15:53:13.928Z,10.43
2018-04-07T15:55:41.355Z,11.43
2018-04-07T15:58:08.759Z,10.83
2018-04-07T16:00:36.187Z,10.27
2018-04-07T16:03:03.631Z,11.77
2018-04-07T16:05:31.022Z,9.80
2018-04-07T16:07:58.446Z,12.00
2018-04-07T16:10:25.951Z,10.77
2018-04-07T16:12:53.358Z,10.90
2018-04-07T16:15:20.858Z,11.40
2018-04-07T16:17:49.186Z,10.00
2018-04-07T16:20:16.584Z,10.57
2018-04-07T16:22:43.986Z,9.47
2018-04-07T16:25:11.438Z,10.33
2018-04-07T16:27:38.798Z,10.27
2018-04-07T16:30:06.200Z,11.17
2018-04-07T16:32:33.606Z,10.17
2018-04-07T16:35:00.998Z,11.80
2018-04-07T16:37:28.399Z,10.47
2018-04-07T16:39:56.710Z,10.33
2018-04-07T16:42:24.111Z,9.57
2018-04-07T16:44:51.511Z,9.73
2018-04-07T16:47:18.894Z,9.30
2018-04-07T16:49:46.328Z,9.57
2018-04-07T16:52:13.831Z,10.17
2018-04-07T16:54:41.194Z,10.80
2018-04-07T16:57:08.591Z,9.50
2018-04-07T16:59:35.982Z,8.97
2018-04-07T17:02:03.383Z,8.83
2018-04-07T17:04:30.785Z,8.50
2018-04-07T17:06:58.175Z,8.57
2018-04-07T17:09:25.595Z,8.90
2018-04-07T17:11:52.986Z,8.90
2018-04-07T17:14:20.382Z,9.60
2018-04-07T17:16:47.850Z,7.83
2018-04-07T17:19:15.252Z,9.27
2018-04-07T17:21:42.643Z,9.37
2018-04-07T17:24:10.056Z,8.50
2018-04-07T17:26:37.447Z,8.90
2018-04-07T17:29:04.847Z,8.47
2018-04-07T17:31:32.333Z,9.63
2018-04-07T17:33:59.803Z,9.17
2018-04-07T17:36:27.258Z,10.10
2018-04-07T17:38:54.667Z,10.47
2018-04-07T17:41:22.060Z,11.27
2018-04-07T17:43:49.458Z,14.80
2018-04-07T17:46:16.854Z,11.67
2018-04-07T17:48:44.297Z,9.97
2018-04-07T17:51:11.712Z,9.30
2018-04-07T17:53:39.089Z,15.90
2018-04-07T17:56:06.525Z,11.00
2018-04-07T17:58:33.936Z,10.60
2018-04-07T18:01:01.329Z,11.97
2018-04-07T18:03:28.736Z,11.63
2018-04-07T18:05:56.132Z,10.70
2018-04-07T18:08:23.543Z,11.40
2018-04-07T18:10:50.930Z,8.70
2018-04-07T18:13:18.326Z,8.77
2018-04-07T18:15:45.734Z,11.23
2018-04-07T18:18:13.159Z,10.00
2018-04-07T18:20:40.618Z,11.70
2018-04-07T18:23:08.019Z,10.13
2018-04-07T18:25:35.406Z,8.80
2018-04-07T18:28:02.888Z,8.80
2018-04-07T18:30:30.347Z,9.13
2018-04-07T18:32:57.798Z,8.80
2018-04-07T18:35:25.258Z,10.13
2018-04-07T18:37:52.662Z,10.07
2018-04-07T18:40:20.085Z,8.90
2018-04-07T18:42:47.523Z,9.63
2018-04-07T18:45:14.967Z,9.67
2018-04-07T18:47:42.397Z,9.80
2018-04-07T18:50:09.810Z,10.70
2018-04-07T18:52:37.235Z,11.03
2018-04-07T18:55:04.706Z,13.53
2018-04-07T18:57:32.103Z,12.97
2018-04-07T18:59:59.587Z,12.30
2018-04-07T19:02:26.986Z,10.70
2018-04-07T19:04:54.390Z,10.50
2018-04-07T19:07:21.790Z,11.80
2018-04-07T19:09:49.227Z,11.30
2018-04-07T19:12:16.594Z,10.33
2018-04-07T19:14:44.083Z,12.07
2018-04-07T19:17:11.478Z,10.60
2018-04-07T19:19:38.916Z,10.80
2018-04-07T19:22:06.358Z,10.90
2018-04-07T19:24:33.769Z,10.50
2018-04-07T19:27:01.211Z,11.00
2018-04-07T19:29:28.690Z,11.20
2018-04-07T19:31:56.095Z,11.80
2018-04-07T19:34:23.495Z,11.00
2018-04-07T19:36:50.938Z,12.53
2018-04-07T19:39:18.394Z,10.67
2018-04-07T19:41:45.864Z,13.67
2018-04-07T19:44:13.293Z,11.53
2018-04-07T19:46:40.763Z,12.50
2018-04-07T19:49:08.233Z,12.73
2018-04-07T19:51:35.622Z,12.83
2018-04-07T19:54:03.018Z,11.17
2018-04-07T19:56:30.435Z,12.20
2018-04-07T19:58:57.827Z,10.50
2018-04-07T20:01:25.222Z,9.67
2018-04-07T20:03:52.626Z,10.73
2018-04-07T20:06:20.027Z,12.73
2018-04-07T20:08:47.471Z,11.80
2018-04-07T20:11:14.927Z,9.70
2018-04-07T20:13:42.379Z,12.30
2018-04-07T20:16:09.775Z,13.10
2018-04-07T20:18:37.177Z,11.87
2018-04-07T20:21:04.571Z,13.13
2018-04-07T20:23:31.972Z,11.60
2018-04-07T20:25:59.420Z,12.10
2018-04-07T20:28:26.878Z,21.07
2018-04-07T20:30:54.282Z,24.93
2018-04-07T20:33:21.694Z,32.43
2018-04-07T20:35:50.076Z,16.73
2018-04-07T20:38:17.458Z,12.40
2018-04-07T20:40:55.802Z,12.67
2018-04-07T20:43:23.205Z,11.30
2018-04-07T20:45:50.667Z,11.10
2018-04-07T20:48:18.098Z,12.47
2018-04-07T20:50:45.555Z,11.33
2018-04-07T20:53:13.013Z,12.77
2018-04-07T20:55:40.412Z,11.80
2018-04-07T20:58:07.832Z,11.13
2018-04-07T21:00:35.227Z,10.63
2018-04-07T21:03:02.619Z,12.70
2018-04-07T21:05:30.032Z,10.67
2018-04-07T21:07:57.557Z,11.90
2018-04-07T21:10:25.003Z,11.40
2018-04-07T21:12:52.464Z,9.70
2018-04-07T21:15:19.922Z,12.47
2018-04-07T21:17:47.385Z,10.93
2018-04-07T21:20:14.786Z,10.90
2018-04-07T21:22:42.238Z,15.00
2018-04-07T21:25:09.643Z,11.33
2018-04-07T21:27:37.035Z,11.43
2018-04-07T21:30:04.502Z,12.33
2018-04-07T21:32:31.902Z,12.87
2018-04-07T21:34:59.311Z,12.00
2018-04-07T21:37:26.705Z,11.67
2018-04-07T21:39:54.111Z,12.20
2018-04-07T21:42:21.503Z,13.53
2018-04-07T21:44:48.911Z,12.33
2018-04-07T21:47:16.312Z,11.10
2018-04-07T21:49:43.710Z,11.23
2018-04-07T21:52:11.206Z,13.03
2018-04-07T21:54:38.663Z,12.90
2018-04-07T21:57:06.068Z,12.37
2018-04-07T21:59:33.476Z,13.47
2018-04-07T22:02:00.891Z,10.80
2018-04-07T22:04:28.283Z,11.33
2018-04-07T22:06:55.685Z,11.60
2018-04-07T22:09:23.082Z,12.27
2018-04-07T22:11:50.483Z,13.50
2018-04-07T22:14:17.878Z,13.83
2018-04-07T22:16:45.282Z,12.90
2018-04-07T22:19:12.680Z,14.00
2018-04-07T22:21:40.083Z,14.47
2018-04-07T22:24:07.481Z,16.33
2018-04-07T22:26:34.883Z,14.63
2018-04-07T22:29:02.273Z,14.33
2018-04-07T22:31:29.678Z,13.30
2018-04-07T22:33:57.077Z,12.37
2018-04-07T22:36:24.476Z,13.70
2018-04-07T22:38:51.866Z,11.83
2018-04-07T22:41:19.342Z,12.40
2018-04-07T22:43:46.743Z,13.80
2018-04-07T22:46:14.146Z,12.33
2018-04-07T22:48:41.607Z,12.80
2018-04-07T22:51:09.023Z,13.77
2018-04-07T22:53:36.414Z,13.37
2018-04-07T22:56:03.827Z,12.63
2018-04-07T22:58:31.326Z,12.60
2018-04-07T23:00:58.793Z,14.50
2018-04-07T23:03:26.189Z,11.90
2018-04-07T23:05:53.590Z,11.53
2018-04-07T23:08:20.983Z,12.67
2018-04-07T23:10:48.386Z,11.70
2018-04-07T23:13:15.778Z,11.00
2018-04-07T23:15:43.224Z,12.30
2018-04-07T23:18:10.622Z,12.10
2018-04-07T23:20:38.013Z,12.03
2018-04-07T23:23:07.221Z,12.97
2018-04-07T23:25:34.619Z,11.97
2018-04-07T23:28:02.042Z,11.90
2018-04-07T23:30:29.494Z,12.10
2018-04-07T23:32:56.918Z,12.07
2018-04-07T23:35:24.311Z,11.83
2018-04-07T23:37:51.767Z,12.37
2018-04-07T23:40:19.162Z,13.23
2018-04-07T23:42:46.678Z,12.37
2018-04-07T23:45:14.119Z,13.20
2018-04-07T23:47:41.567Z,12.67
2018-04-07T23:50:08.959Z,12.17
2018-04-07T23:52:36.394Z,13.77
2018-04-07T23:55:03.827Z,11.67
2018-04-07T23:57:31.231Z,12.30
2018-04-07T23:59:58.639Z,12.17
